Covington, Virginia
Current Conditions -  °F | °C
As of 12:35 AM on Monday 22 Dec 2014 (Local Time) from KHSP Reporting Station
Haze Haze  
Wind Chill: 22°   Ceiling: 300
Heat Index: 29°   Visibility: 1.2mi
Dew Point: 29°   Wind: 7mph
Humidity: 100%   Direction: 140°SE
Pressure: 30.11"   Gusts: NA
Location:  37.79°N, 79.99°W
Report Text: KHSP 220535Z AUTO 14006KT 1 1/4SM BR OVC003 M02/M02 A3011 RMK AO2 VIS 3/4V3 T10171017
Loading
Personal Weather Stations






























Interactive Weather Map New forecast layout! Learn more

10-Day Weather Forecast

Advertisements
Track Severe Weather on mobile